Time,TemperatureF,DewpointF,PressureIn,WindDirection,WindDirectionDegrees,WindSpeedMPH,WindSpeedGustMPH,Humidity,HourlyPrecipIn,Conditions,Clouds,dailyrainin,SolarRadiationWatts/m^2,SoftwareType,DateUTC
2013-08-06 00:03:00,64.7,56.2,29.82,NE,39,0.0,0.0,74,0.00,,,0.00,0,Wunderground v.1.15,2013-08-06 05:03:00,
2013-08-06 00:13:00,64.4,56.3,29.82,ENE,77,0.0,0.0,75,0.00,,,0.00,0,Wunderground v.1.15,2013-08-06 05:13:00,
2013-08-06 00:23:00,64.2,56.5,29.81,ENE,57,0.0,0.0,76,0.00,,,0.00,0,Wunderground v.1.15,2013-08-06 05:23:00,
2013-08-06 00:33:00,64.1,56.7,29.81,NE,49,0.0,0.0,77,0.00,,,0.00,0,Wunderground v.1.15,2013-08-06 05:33:00,
2013-08-06 00:43:00,63.8,56.1,29.81,East,79,0.0,0.0,76,0.00,,,0.00,0,Wunderground v.1.15,2013-08-06 05:43:00,
2013-08-06 00:53:00,63.6,55.9,29.82,East,79,0.0,0.0,76,0.00,,,0.00,0,Wunderground v.1.15,2013-08-06 05:53:00,
2013-08-06 01:03:00,63.5,56.2,29.81,East,88,0.0,0.0,77,0.00,,,0.00,0,Wunderground v.1.15,2013-08-06 06:03:00,
2013-08-06 01:13:00,63.5,56.2,29.81,ESE,121,0.0,0.0,77,0.00,,,0.00,0,Wunderground v.1.15,2013-08-06 06:13:00,
2013-08-06 01:23:00,63.4,56.1,29.81,ESE,121,0.0,0.0,77,0.00,,,0.00,0,Wunderground v.1.15,2013-08-06 06:23:00,
2013-08-06 01:33:00,63.2,55.9,29.80,ESE,121,0.0,0.0,77,0.00,,,0.00,0,Wunderground v.1.15,2013-08-06 06:33:00,
2013-08-06 01:43:00,63.0,55.7,29.80,ESE,121,0.0,0.0,77,0.00,,,0.00,0,Wunderground v.1.15,2013-08-06 06:43:00,
2013-08-06 01:53:00,62.8,55.8,29.80,ESE,121,0.0,0.0,78,0.00,,,0.00,0,Wunderground v.1.15,2013-08-06 06:53:00,
2013-08-06 02:03:00,62.7,56.1,29.79,SE,126,0.0,0.0,79,0.00,,,0.00,0,Wunderground v.1.15,2013-08-06 07:03:00,
2013-08-06 02:13:00,62.5,56.2,29.79,SSE,150,0.0,0.0,80,0.00,,,0.00,0,Wunderground v.1.15,2013-08-06 07:13:00,
2013-08-06 02:23:00,62.3,56.4,29.78,SSE,150,0.0,0.0,81,0.00,,,0.00,0,Wunderground v.1.15,2013-08-06 07:23:00,
2013-08-06 02:33:00,62.1,56.2,29.79,SSE,150,0.0,0.0,81,0.00,,,0.00,0,Wunderground v.1.15,2013-08-06 07:33:00,
2013-08-06 02:43:00,62.0,56.4,29.78,SSE,150,0.0,0.0,82,0.00,,,0.00,0,Wunderground v.1.15,2013-08-06 07:43:00,
2013-08-06 02:53:00,61.9,56.7,29.77,SSE,150,0.0,0.0,83,0.00,,,0.00,0,Wunderground v.1.15,2013-08-06 07:53:00,
2013-08-06 03:03:00,61.7,56.5,29.77,SSE,150,0.0,0.0,83,0.00,,,0.00,0,Wunderground v.1.15,2013-08-06 08:03:00,
2013-08-06 03:13:00,61.8,56.6,29.77,NE,55,0.0,0.0,83,0.00,,,0.00,0,Wunderground v.1.15,2013-08-06 08:13:00,
2013-08-06 03:23:00,61.6,56.7,29.76,NE,48,0.0,0.0,84,0.00,,,0.00,0,Wunderground v.1.15,2013-08-06 08:23:00,
2013-08-06 03:33:00,61.6,56.7,29.76,NE,45,0.0,0.0,84,0.00,,,0.00,0,Wunderground v.1.15,2013-08-06 08:33:00,
2013-08-06 03:43:00,61.5,56.3,29.76,NE,45,0.0,0.0,83,0.00,,,0.00,0,Wunderground v.1.15,2013-08-06 08:43:00,
2013-08-06 03:53:00,61.5,56.6,29.76,NE,44,0.0,0.0,84,0.00,,,0.00,0,Wunderground v.1.15,2013-08-06 08:53:00,
2013-08-06 04:03:00,61.3,56.4,29.77,NE,44,0.0,0.0,84,0.00,,,0.00,0,Wunderground v.1.15,2013-08-06 09:03:00,
2013-08-06 04:13:00,61.1,56.2,29.77,NE,46,0.0,0.0,84,0.00,,,0.00,0,Wunderground v.1.15,2013-08-06 09:13:00,
2013-08-06 04:23:00,60.9,56.4,29.77,NE,46,0.0,0.0,85,0.00,,,0.00,0,Wunderground v.1.15,2013-08-06 09:23:00,
2013-08-06 04:33:00,60.8,56.3,29.77,NE,46,0.0,0.0,85,0.00,,,0.00,0,Wunderground v.1.15,2013-08-06 09:33:00,
2013-08-06 04:43:00,60.7,56.2,29.77,NE,46,0.0,0.0,85,0.00,,,0.00,0,Wunderground v.1.15,2013-08-06 09:43:00,
2013-08-06 04:53:00,60.7,56.2,29.77,NE,46,0.0,0.0,85,0.00,,,0.00,0,Wunderground v.1.15,2013-08-06 09:53:00,
2013-08-06 05:03:00,60.6,56.1,29.77,NE,44,0.0,0.0,85,0.00,,,0.00,0,Wunderground v.1.15,2013-08-06 10:03:00,
2013-08-06 05:12:00,60.3,55.8,29.78,NE,48,0.0,0.0,85,0.00,,,0.00,0,Wunderground v.1.15,2013-08-06 10:12:00,
2013-08-06 05:23:00,59.9,55.4,29.78,NE,34,0.0,0.0,85,0.00,,,0.00,0,Wunderground v.1.15,2013-08-06 10:23:00,
2013-08-06 05:33:00,59.5,55.0,29.78,NE,42,0.0,0.0,85,0.00,,,0.00,0,Wunderground v.1.15,2013-08-06 10:33:00,
2013-08-06 05:43:00,59.0,54.5,29.78,NE,37,0.0,0.0,85,0.00,,,0.00,0,Wunderground v.1.15,2013-08-06 10:43:00,
2013-08-06 05:53:00,58.5,54.3,29.78,East,87,0.0,0.0,86,0.00,,,0.00,0,Wunderground v.1.15,2013-08-06 10:53:00,
2013-08-06 06:03:00,58.1,53.9,29.80,ENE,77,0.0,0.0,86,0.00,,,0.00,0,Wunderground v.1.15,2013-08-06 11:03:00,
2013-08-06 06:13:00,57.9,54.1,29.81,ENE,78,0.0,0.0,87,0.00,,,0.00,0,Wunderground v.1.15,2013-08-06 11:13:00,
2013-08-06 06:23:00,57.9,54.4,29.81,East,83,0.0,0.0,88,0.00,,,0.00,0,Wunderground v.1.15,2013-08-06 11:23:00,
2013-08-06 06:33:00,57.8,54.3,29.83,ENE,69,0.0,0.0,88,0.00,,,0.00,0,Wunderground v.1.15,2013-08-06 11:33:00,
2013-08-06 06:43:00,57.8,54.3,29.83,ENE,70,0.0,0.0,88,0.00,,,0.00,0,Wunderground v.1.15,2013-08-06 11:43:00,
2013-08-06 06:53:00,57.8,54.3,29.83,East,85,0.0,0.0,88,0.00,,,0.00,0,Wunderground v.1.15,2013-08-06 11:53:00,
2013-08-06 07:03:00,57.8,54.3,29.90,ENE,76,0.0,0.0,88,0.00,,,0.00,0,Wunderground v.1.15,2013-08-06 12:03:00,
2013-08-06 07:13:00,57.8,54.3,29.90,ENE,62,0.0,0.0,88,0.00,,,0.00,0,Wunderground v.1.15,2013-08-06 12:13:00,
2013-08-06 07:23:00,57.7,54.2,29.90,ENE,61,0.0,0.0,88,0.00,,,0.00,7,Wunderground v.1.15,2013-08-06 12:23:00,
2013-08-06 07:33:00,57.6,54.1,29.90,NE,53,0.0,0.0,88,0.00,,,0.00,16,Wunderground v.1.15,2013-08-06 12:33:00,
2013-08-06 07:43:00,57.4,53.9,29.91,NE,40,2.0,2.0,88,0.00,,,0.00,25,Wunderground v.1.15,2013-08-06 12:43:00,
2013-08-06 07:53:00,57.2,53.7,29.91,NE,40,0.0,0.0,88,0.00,,,0.00,63,Wunderground v.1.15,2013-08-06 12:53:00,
2013-08-06 08:03:00,57.2,54.0,29.93,ENE,73,0.0,0.0,89,0.00,,,0.00,91,Wunderground v.1.15,2013-08-06 13:03:00,
2013-08-06 08:13:00,57.7,54.5,29.92,ENE,75,0.0,0.0,89,0.00,,,0.00,123,Wunderground v.1.15,2013-08-06 13:13:00,
2013-08-06 08:23:00,58.3,55.1,29.92,ENE,67,1.0,1.0,89,0.00,,,0.00,153,Wunderground v.1.15,2013-08-06 13:23:00,
2013-08-06 08:33:00,59.0,55.4,29.92,ENE,57,1.0,1.0,88,0.00,,,0.00,195,Wunderground v.1.15,2013-08-06 13:33:00,
2013-08-06 08:43:00,59.7,56.1,29.90,ENE,57,0.0,0.0,88,0.00,,,0.00,237,Wunderground v.1.15,2013-08-06 13:43:00,
2013-08-06 08:53:00,60.6,56.7,29.90,ENE,67,0.0,0.0,87,0.00,,,0.00,279,Wunderground v.1.15,2013-08-06 13:53:00,
2013-08-06 09:03:00,61.5,56.9,29.90,NE,51,0.0,0.0,85,0.00,,,0.00,315,Wunderground v.1.15,2013-08-06 14:03:00,
2013-08-06 09:13:00,62.5,57.6,29.91,NE,47,0.0,0.0,84,0.00,,,0.00,352,Wunderground v.1.15,2013-08-06 14:13:00,
2013-08-06 09:23:00,63.6,57.7,29.90,ENE,59,0.0,0.0,81,0.00,,,0.00,388,Wunderground v.1.15,2013-08-06 14:23:00,
2013-08-06 09:33:00,64.7,58.4,29.89,ENE,64,0.0,0.0,80,0.00,,,0.00,424,Wunderground v.1.15,2013-08-06 14:33:00,
2013-08-06 09:43:00,66.0,58.2,29.89,ENE,74,0.0,0.0,76,0.00,,,0.00,457,Wunderground v.1.15,2013-08-06 14:43:00,
2013-08-06 09:53:00,66.7,58.1,29.88,SSE,148,0.0,0.0,74,0.00,,,0.00,483,Wunderground v.1.15,2013-08-06 14:53:00,
2013-08-06 10:03:00,67.1,58.2,29.88,SW,217,0.0,0.0,73,0.00,,,0.00,257,Wunderground v.1.15,2013-08-06 15:03:00,
2013-08-06 10:13:00,67.2,58.2,29.88,North,350,0.0,0.0,73,0.00,,,0.00,580,Wunderground v.1.15,2013-08-06 15:13:00,
2013-08-06 10:22:00,67.5,58.5,29.87,NNE,33,0.0,0.0,73,0.00,,,0.00,526,Wunderground v.1.15,2013-08-06 15:22:00,
2013-08-06 10:33:00,68.4,59.0,29.87,ESE,105,0.0,0.0,72,0.00,,,0.00,657,Wunderground v.1.15,2013-08-06 15:33:00,
2013-08-06 10:43:00,69.3,58.7,29.87,South,191,0.0,0.0,69,0.00,,,0.00,214,Wunderground v.1.15,2013-08-06 15:43:00,
2013-08-06 10:53:00,70.0,59.0,29.86,South,190,0.0,0.0,68,0.00,,,0.00,849,Wunderground v.1.15,2013-08-06 15:53:00,
2013-08-06 11:03:00,70.9,59.4,29.87,SSE,155,0.0,0.0,67,0.00,,,0.00,770,Wunderground v.1.15,2013-08-06 16:03:00,
2013-08-06 11:13:00,71.7,59.3,29.87,SW,220,0.0,0.0,65,0.00,,,0.00,761,Wunderground v.1.15,2013-08-06 16:13:00,
2013-08-06 11:23:00,72.2,58.9,29.87,WNW,303,0.0,0.0,63,0.00,,,0.00,788,Wunderground v.1.15,2013-08-06 16:23:00,
2013-08-06 11:33:00,72.9,58.7,29.85,SSE,167,0.0,0.0,61,0.00,,,0.00,803,Wunderground v.1.15,2013-08-06 16:33:00,
2013-08-06 11:43:00,73.5,58.3,29.85,SE,128,0.0,0.0,59,0.00,,,0.00,814,Wunderground v.1.15,2013-08-06 16:43:00,
2013-08-06 11:53:00,73.8,57.6,29.84,ESE,108,0.0,0.0,57,0.00,,,0.00,844,Wunderground v.1.15,2013-08-06 16:53:00,
2013-08-06 12:03:00,74.7,58.9,29.84,ESE,123,0.0,0.0,58,0.00,,,0.00,863,Wunderground v.1.15,2013-08-06 17:03:00,
2013-08-06 12:13:00,75.5,58.7,29.83,SSW,209,0.0,0.0,56,0.00,,,0.00,881,Wunderground v.1.15,2013-08-06 17:13:00,
2013-08-06 12:23:00,76.5,58.1,29.82,South,171,0.0,0.0,53,0.00,,,0.00,909,Wunderground v.1.15,2013-08-06 17:23:00,
2013-08-06 12:33:00,77.3,58.8,29.82,South,173,0.0,0.0,53,0.00,,,0.00,912,Wunderground v.1.15,2013-08-06 17:33:00,
2013-08-06 12:43:00,77.2,59.3,29.81,SSE,159,0.0,0.0,54,0.00,,,0.00,937,Wunderground v.1.15,2013-08-06 17:43:00,
2013-08-06 12:53:00,77.6,58.0,29.80,ESE,123,0.0,0.0,51,0.00,,,0.00,965,Wunderground v.1.15,2013-08-06 17:53:00,
2013-08-06 13:03:00,77.9,58.9,29.81,SE,146,0.0,0.0,52,0.00,,,0.00,1041,Wunderground v.1.15,2013-08-06 18:03:00,
2013-08-06 13:13:00,78.0,58.4,29.80,SSE,159,0.0,0.0,51,0.00,,,0.00,969,Wunderground v.1.15,2013-08-06 18:13:00,
2013-08-06 13:22:00,78.0,58.9,29.80,SSW,207,0.0,0.0,52,0.00,,,0.00,1074,Wunderground v.1.15,2013-08-06 18:22:00,
2013-08-06 13:33:00,78.9,58.7,29.78,WSW,239,0.0,0.0,50,0.00,,,0.00,1018,Wunderground v.1.15,2013-08-06 18:33:00,
2013-08-06 13:43:00,79.3,58.5,29.78,SW,219,0.0,0.0,49,0.00,,,0.00,216,Wunderground v.1.15,2013-08-06 18:43:00,
2013-08-06 13:53:00,78.9,58.7,29.78,SW,219,0.0,1.0,50,0.00,,,0.00,1011,Wunderground v.1.15,2013-08-06 18:53:00,
2013-08-06 14:03:00,79.7,58.8,29.77,West,280,0.0,0.0,49,0.00,,,0.00,963,Wunderground v.1.15,2013-08-06 19:03:00,
2013-08-06 14:13:00,80.5,58.4,29.77,NW,308,0.0,0.0,47,0.00,,,0.00,1005,Wunderground v.1.15,2013-08-06 19:13:00,
2013-08-06 14:22:00,80.6,57.9,29.77,SSW,193,0.0,0.0,46,0.00,,,0.00,962,Wunderground v.1.15,2013-08-06 19:22:00,
2013-08-06 14:33:00,80.9,56.9,29.76,SSE,156,0.0,0.0,44,0.00,,,0.00,953,Wunderground v.1.15,2013-08-06 19:33:00,
2013-08-06 14:43:00,80.7,58.0,29.76,SW,229,0.0,1.0,46,0.00,,,0.00,995,Wunderground v.1.15,2013-08-06 19:43:00,
2013-08-06 14:53:00,81.1,58.4,29.75,West,271,1.0,1.0,46,0.00,,,0.00,914,Wunderground v.1.15,2013-08-06 19:53:00,
2013-08-06 15:03:00,80.8,56.9,29.74,NW,309,2.0,2.0,44,0.00,,,0.00,921,Wunderground v.1.15,2013-08-06 20:03:00,
2013-08-06 15:13:00,80.4,56.5,29.75,NW,319,2.0,2.0,44,0.00,,,0.00,893,Wunderground v.1.15,2013-08-06 20:13:00,
2013-08-06 15:23:00,81.2,57.2,29.73,NW,304,0.0,0.0,44,0.00,,,0.00,844,Wunderground v.1.15,2013-08-06 20:23:00,
2013-08-06 15:33:00,82.0,57.3,29.73,NW,309,1.0,1.0,43,0.00,,,0.00,860,Wunderground v.1.15,2013-08-06 20:33:00,
2013-08-06 15:43:00,82.5,56.4,29.72,North,360,1.0,1.0,41,0.00,,,0.00,842,Wunderground v.1.15,2013-08-06 20:43:00,
2013-08-06 15:53:00,82.9,56.8,29.70,NNW,336,0.0,2.0,41,0.00,,,0.00,842,Wunderground v.1.15,2013-08-06 20:53:00,
2013-08-06 16:03:00,83.5,56.6,29.70,NW,313,1.0,1.0,40,0.00,,,0.00,802,Wunderground v.1.15,2013-08-06 21:03:00,
2013-08-06 16:13:00,84.2,55.8,29.70,West,281,0.0,1.0,38,0.00,,,0.00,768,Wunderground v.1.15,2013-08-06 21:13:00,
2013-08-06 16:23:00,84.6,56.2,29.68,South,169,1.0,1.0,38,0.00,,,0.00,744,Wunderground v.1.15,2013-08-06 21:23:00,
2013-08-06 16:33:00,84.9,55.7,29.67,South,179,0.0,0.0,37,0.00,,,0.00,719,Wunderground v.1.15,2013-08-06 21:33:00,
2013-08-06 16:43:00,85.0,55.8,29.67,North,350,0.0,0.0,37,0.00,,,0.00,710,Wunderground v.1.15,2013-08-06 21:43:00,
2013-08-06 16:53:00,84.7,56.3,29.67,West,266,1.0,1.0,38,0.00,,,0.00,659,Wunderground v.1.15,2013-08-06 21:53:00,
2013-08-06 17:03:00,84.3,55.9,29.69,SSW,200,1.0,1.0,38,0.00,,,0.00,652,Wunderground v.1.15,2013-08-06 22:03:00,
2013-08-06 17:13:00,84.3,55.9,29.69,WSW,249,1.0,2.0,38,0.00,,,0.00,631,Wunderground v.1.15,2013-08-06 22:13:00,
2013-08-06 17:23:00,84.3,55.2,29.69,SW,232,1.0,1.0,37,0.00,,,0.00,610,Wunderground v.1.15,2013-08-06 22:23:00,
2013-08-06 17:33:00,83.9,55.6,29.68,SSW,196,2.0,6.0,38,0.00,,,0.00,548,Wunderground v.1.15,2013-08-06 22:33:00,
2013-08-06 17:42:00,83.7,55.4,29.68,WNW,284,2.0,2.0,38,0.00,,,0.00,510,Wunderground v.1.15,2013-08-06 22:42:00,
2013-08-06 17:53:00,83.9,55.6,29.67,SSE,157,0.0,0.0,38,0.00,,,0.00,397,Wunderground v.1.15,2013-08-06 22:53:00,
2013-08-06 18:03:00,83.9,56.3,29.67,West,272,0.0,0.0,39,0.00,,,0.00,241,Wunderground v.1.15,2013-08-06 23:03:00,
2013-08-06 18:13:00,83.8,56.9,29.65,West,273,0.0,1.0,40,0.00,,,0.00,325,Wunderground v.1.15,2013-08-06 23:13:00,
2013-08-06 18:23:00,83.0,55.5,29.67,WNW,293,0.0,0.0,39,0.00,,,0.00,334,Wunderground v.1.15,2013-08-06 23:23:00,
2013-08-06 18:33:00,82.5,56.4,29.67,West,275,1.0,1.0,41,0.00,,,0.00,381,Wunderground v.1.15,2013-08-06 23:33:00,
2013-08-06 18:43:00,82.0,56.0,29.67,WSW,242,1.0,1.0,41,0.00,,,0.00,301,Wunderground v.1.15,2013-08-06 23:43:00,
2013-08-06 18:53:00,81.8,56.5,29.67,WSW,238,0.0,1.0,42,0.00,,,0.00,188,Wunderground v.1.15,2013-08-06 23:53:00,
2013-08-06 19:03:00,81.1,55.8,29.68,West,259,2.0,2.0,42,0.00,,,0.00,246,Wunderground v.1.15,2013-08-07 00:03:00,
2013-08-06 19:13:00,80.9,56.3,29.68,WNW,292,1.0,2.0,43,0.00,,,0.00,148,Wunderground v.1.15,2013-08-07 00:13:00,
2013-08-06 19:23:00,80.4,57.7,29.68,West,263,2.0,4.0,46,0.00,,,0.00,54,Wunderground v.1.15,2013-08-07 00:23:00,
2013-08-06 19:33:00,79.7,58.3,29.69,West,272,2.0,3.0,48,0.00,,,0.00,33,Wunderground v.1.15,2013-08-07 00:33:00,
2013-08-06 19:43:00,78.8,57.4,29.70,WNW,284,1.0,3.0,48,0.00,,,0.00,33,Wunderground v.1.15,2013-08-07 00:43:00,
2013-08-06 19:53:00,78.3,57.6,29.72,WNW,299,1.0,1.0,49,0.00,,,0.00,14,Wunderground v.1.15,2013-08-07 00:53:00,
2013-08-06 20:03:00,77.6,59.1,29.70,North,9,3.0,3.0,53,0.00,,,0.00,11,Wunderground v.1.15,2013-08-07 01:03:00,
2013-08-06 20:13:00,76.8,59.4,29.70,NW,312,1.0,1.0,55,0.00,,,0.00,0,Wunderground v.1.15,2013-08-07 01:13:00,
2013-08-06 20:23:00,76.0,59.2,29.72,North,351,0.0,0.0,56,0.00,,,0.00,0,Wunderground v.1.15,2013-08-07 01:23:00,
2013-08-06 20:33:00,75.1,59.3,29.72,NNW,334,1.0,1.0,58,0.00,,,0.00,0,Wunderground v.1.15,2013-08-07 01:33:00,
2013-08-06 20:43:00,74.4,59.1,29.73,North,5,1.0,1.0,59,0.00,,,0.00,0,Wunderground v.1.15,2013-08-07 01:43:00,
2013-08-06 20:53:00,74.0,58.8,29.73,NNE,14,1.0,1.0,59,0.00,,,0.00,0,Wunderground v.1.15,2013-08-07 01:53:00,
2013-08-06 21:03:00,73.5,56.8,29.69,NNE,23,0.0,0.0,56,0.00,,,0.00,0,Wunderground v.1.15,2013-08-07 02:03:00,
2013-08-06 21:13:00,73.3,55.6,29.71,ENE,59,0.0,0.0,54,0.00,,,0.00,0,Wunderground v.1.15,2013-08-07 02:13:00,
2013-08-06 21:23:00,73.3,56.2,29.72,NNE,30,0.0,0.0,55,0.00,,,0.00,0,Wunderground v.1.15,2013-08-07 02:23:00,
2013-08-06 21:33:00,73.1,56.0,29.72,East,86,0.0,0.0,55,0.00,,,0.00,0,Wunderground v.1.15,2013-08-07 02:33:00,
2013-08-06 21:43:00,73.1,56.5,29.73,South,171,0.0,0.0,56,0.00,,,0.00,0,Wunderground v.1.15,2013-08-07 02:43:00,
2013-08-06 21:53:00,73.1,57.4,29.73,SSW,198,0.0,0.0,58,0.00,,,0.00,0,Wunderground v.1.15,2013-08-07 02:53:00,
2013-08-06 22:03:00,72.8,57.6,29.73,SSW,202,0.0,0.0,59,0.00,,,0.00,0,Wunderground v.1.15,2013-08-07 03:03:00,
2013-08-06 22:13:00,72.4,58.2,29.73,West,265,0.0,0.0,61,0.00,,,0.00,0,Wunderground v.1.15,2013-08-07 03:13:00,
2013-08-06 22:23:00,71.9,58.2,29.74,WSW,240,0.0,0.0,62,0.00,,,0.00,0,Wunderground v.1.15,2013-08-07 03:23:00,
2013-08-06 22:33:00,71.5,58.7,29.75,WSW,239,1.0,1.0,64,0.00,,,0.00,0,Wunderground v.1.15,2013-08-07 03:33:00,
2013-08-06 22:42:00,71.1,58.7,29.76,SE,134,0.0,0.0,65,0.00,,,0.00,0,Wunderground v.1.15,2013-08-07 03:42:00,
2013-08-06 22:53:00,70.8,58.9,29.76,SE,130,0.0,0.0,66,0.00,,,0.00,0,Wunderground v.1.15,2013-08-07 03:53:00,
2013-08-06 23:03:00,70.6,59.1,29.75,SE,130,0.0,0.0,67,0.00,,,0.00,0,Wunderground v.1.15,2013-08-07 04:03:00,
2013-08-06 23:12:00,70.4,58.9,29.75,South,175,0.0,0.0,67,0.00,,,0.00,0,Wunderground v.1.15,2013-08-07 04:12:00,
2013-08-06 23:23:00,70.1,59.0,29.75,South,190,0.0,0.0,68,0.00,,,0.00,0,Wunderground v.1.15,2013-08-07 04:23:00,
2013-08-06 23:33:00,69.7,58.7,29.75,ESE,114,0.0,0.0,68,0.00,,,0.00,0,Wunderground v.1.15,2013-08-07 04:33:00,
2013-08-06 23:43:00,69.3,58.7,29.77,South,175,1.0,1.0,69,0.00,,,0.00,0,Wunderground v.1.15,2013-08-07 04:43:00,
2013-08-06 23:53:00,69.0,58.8,29.77,South,188,0.0,0.0,70,0.00,,,0.00,0,Wunderground v.1.15,2013-08-07 04:53:00,